sensor_id;sensor_type;location;lat;lon;timestamp;temperature;humidity
11540;DHT22;5826;54.756;9.192;2023-01-29T00:02:01;4.20;99.90
11540;DHT22;5826;54.756;9.192;2023-01-29T00:04:28;4.20;99.90
11540;DHT22;5826;54.756;9.192;2023-01-29T00:06:54;4.20;99.90
11540;DHT22;5826;54.756;9.192;2023-01-29T00:09:20;4.10;99.90
11540;DHT22;5826;54.756;9.192;2023-01-29T00:11:45;4.30;99.90
11540;DHT22;5826;54.756;9.192;2023-01-29T00:14:11;4.20;99.90
11540;DHT22;5826;54.756;9.192;2023-01-29T00:16:37;4.20;99.90
11540;DHT22;5826;54.756;9.192;2023-01-29T00:19:03;4.30;99.90
11540;DHT22;5826;54.756;9.192;2023-01-29T00:21:28;4.20;99.90
11540;DHT22;5826;54.756;9.192;2023-01-29T00:23:58;4.20;99.90
11540;DHT22;5826;54.756;9.192;2023-01-29T00:26:24;4.20;99.90
11540;DHT22;5826;54.756;9.192;2023-01-29T00:28:50;4.20;99.90
11540;DHT22;5826;54.756;9.192;2023-01-29T00:31:21;4.20;99.90
11540;DHT22;5826;54.756;9.192;2023-01-29T00:33:47;4.20;99.90
11540;DHT22;5826;54.756;9.192;2023-01-29T00:36:14;4.20;99.90
11540;DHT22;5826;54.756;9.192;2023-01-29T00:38:40;4.20;99.90
11540;DHT22;5826;54.756;9.192;2023-01-29T00:43:49;4.30;99.90
11540;DHT22;5826;54.756;9.192;2023-01-29T00:46:33;4.20;99.90
11540;DHT22;5826;54.756;9.192;2023-01-29T00:48:59;4.30;99.90
11540;DHT22;5826;54.756;9.192;2023-01-29T00:51:24;4.30;99.90
11540;DHT22;5826;54.756;9.192;2023-01-29T00:53:50;4.40;99.90
11540;DHT22;5826;54.756;9.192;2023-01-29T00:56:15;4.40;99.90
11540;DHT22;5826;54.756;9.192;2023-01-29T00:58:41;4.50;99.90
11540;DHT22;5826;54.756;9.192;2023-01-29T01:01:06;4.50;99.90
11540;DHT22;5826;54.756;9.192;2023-01-29T01:03:32;4.50;99.90
11540;DHT22;5826;54.756;9.192;2023-01-29T01:06:04;4.50;99.90
11540;DHT22;5826;54.756;9.192;2023-01-29T01:08:29;4.60;99.90
11540;DHT22;5826;54.756;9.192;2023-01-29T01:11:13;4.60;99.90
11540;DHT22;5826;54.756;9.192;2023-01-29T01:13:39;4.60;99.90
11540;DHT22;5826;54.756;9.192;2023-01-29T01:16:15;4.60;99.90
11540;DHT22;5826;54.756;9.192;2023-01-29T01:18:42;4.60;99.90
11540;DHT22;5826;54.756;9.192;2023-01-29T01:21:08;4.60;99.90
11540;DHT22;5826;54.756;9.192;2023-01-29T01:23:34;4.60;99.90
11540;DHT22;5826;54.756;9.192;2023-01-29T01:25:59;4.60;99.90
11540;DHT22;5826;54.756;9.192;2023-01-29T01:28:26;4.60;99.90
11540;DHT22;5826;54.756;9.192;2023-01-29T01:30:51;4.50;99.90
11540;DHT22;5826;54.756;9.192;2023-01-29T01:33:17;4.50;99.90
11540;DHT22;5826;54.756;9.192;2023-01-29T01:35:42;4.50;99.90
11540;DHT22;5826;54.756;9.192;2023-01-29T01:38:08;4.50;99.90
11540;DHT22;5826;54.756;9.192;2023-01-29T01:40:33;4.50;99.90
11540;DHT22;5826;54.756;9.192;2023-01-29T01:43:00;4.40;99.90
11540;DHT22;5826;54.756;9.192;2023-01-29T01:45:29;4.40;99.90
11540;DHT22;5826;54.756;9.192;2023-01-29T01:48:10;4.40;99.90
11540;DHT22;5826;54.756;9.192;2023-01-29T01:50:43;4.40;99.90
11540;DHT22;5826;54.756;9.192;2023-01-29T01:53:12;4.40;99.90
11540;DHT22;5826;54.756;9.192;2023-01-29T01:55:46;4.40;99.90
11540;DHT22;5826;54.756;9.192;2023-01-29T01:58:50;4.40;99.90
11540;DHT22;5826;54.756;9.192;2023-01-29T02:01:08;4.40;99.90
11540;DHT22;5826;54.756;9.192;2023-01-29T02:03:48;4.40;99.90
11540;DHT22;5826;54.756;9.192;2023-01-29T02:06:34;4.30;99.90
11540;DHT22;5826;54.756;9.192;2023-01-29T02:09:22;4.30;99.90
11540;DHT22;5826;54.756;9.192;2023-01-29T02:12:05;4.30;99.90
11540;DHT22;5826;54.756;9.192;2023-01-29T02:14:31;4.30;99.90
11540;DHT22;5826;54.756;9.192;2023-01-29T02:17:00;4.30;99.90
11540;DHT22;5826;54.756;9.192;2023-01-29T02:19:35;4.30;99.90
11540;DHT22;5826;54.756;9.192;2023-01-29T02:25:09;4.30;99.90
11540;DHT22;5826;54.756;9.192;2023-01-29T02:28:15;4.30;99.90
11540;DHT22;5826;54.756;9.192;2023-01-29T02:36:18;4.30;99.90
11540;DHT22;5826;54.756;9.192;2023-01-29T02:39:28;4.30;99.90
11540;DHT22;5826;54.756;9.192;2023-01-29T02:42:10;4.40;99.90
11540;DHT22;5826;54.756;9.192;2023-01-29T02:50:42;4.40;99.90
11540;DHT22;5826;54.756;9.192;2023-01-29T02:53:15;4.50;99.90
11540;DHT22;5826;54.756;9.192;2023-01-29T02:56:06;4.50;99.90
11540;DHT22;5826;54.756;9.192;2023-01-29T02:58:41;4.50;99.90
11540;DHT22;5826;54.756;9.192;2023-01-29T03:01:12;4.50;99.90
11540;DHT22;5826;54.756;9.192;2023-01-29T03:03:46;4.50;99.90
11540;DHT22;5826;54.756;9.192;2023-01-29T03:06:32;4.50;99.90
11540;DHT22;5826;54.756;9.192;2023-01-29T03:09:04;4.50;99.90
11540;DHT22;5826;54.756;9.192;2023-01-29T03:11:39;4.50;99.90
11540;DHT22;5826;54.756;9.192;2023-01-29T03:14:22;4.50;99.90
11540;DHT22;5826;54.756;9.192;2023-01-29T03:16:53;4.50;99.90
11540;DHT22;5826;54.756;9.192;2023-01-29T03:19:37;4.50;99.90
11540;DHT22;5826;54.756;9.192;2023-01-29T03:22:04;4.60;99.90
11540;DHT22;5826;54.756;9.192;2023-01-29T03:24:40;4.60;99.90
11540;DHT22;5826;54.756;9.192;2023-01-29T03:27:30;4.60;99.90
11540;DHT22;5826;54.756;9.192;2023-01-29T03:30:18;4.60;99.90
11540;DHT22;5826;54.756;9.192;2023-01-29T03:33:05;4.60;99.90
11540;DHT22;5826;54.756;9.192;2023-01-29T03:35:36;4.70;99.90
11540;DHT22;5826;54.756;9.192;2023-01-29T03:38:06;4.70;99.90
11540;DHT22;5826;54.756;9.192;2023-01-29T03:40:47;4.70;99.90
11540;DHT22;5826;54.756;9.192;2023-01-29T03:46:03;4.80;99.90
11540;DHT22;5826;54.756;9.192;2023-01-29T03:48:31;4.80;99.90
11540;DHT22;5826;54.756;9.192;2023-01-29T03:56:43;4.80;99.90
11540;DHT22;5826;54.756;9.192;2023-01-29T03:59:27;4.80;99.90
11540;DHT22;5826;54.756;9.192;2023-01-29T04:02:01;4.80;99.90
11540;DHT22;5826;54.756;9.192;2023-01-29T04:04:34;4.80;99.90
11540;DHT22;5826;54.756;9.192;2023-01-29T04:07:16;4.80;99.90
11540;DHT22;5826;54.756;9.192;2023-01-29T04:09:47;4.90;99.90
11540;DHT22;5826;54.756;9.192;2023-01-29T04:12:19;4.90;99.90
11540;DHT22;5826;54.756;9.192;2023-01-29T04:14:46;4.90;99.90
11540;DHT22;5826;54.756;9.192;2023-01-29T04:17:22;4.90;99.90
11540;DHT22;5826;54.756;9.192;2023-01-29T04:19:50;4.90;99.90
11540;DHT22;5826;54.756;9.192;2023-01-29T04:22:23;4.90;99.90
11540;DHT22;5826;54.756;9.192;2023-01-29T04:24:51;4.90;99.90
11540;DHT22;5826;54.756;9.192;2023-01-29T04:27:26;4.90;99.90
11540;DHT22;5826;54.756;9.192;2023-01-29T04:30:23;5.00;99.90
11540;DHT22;5826;54.756;9.192;2023-01-29T04:36:02;5.00;99.90
11540;DHT22;5826;54.756;9.192;2023-01-29T04:38:56;5.00;99.90
11540;DHT22;5826;54.756;9.192;2023-01-29T04:47:20;5.00;99.90
11540;DHT22;5826;54.756;9.192;2023-01-29T04:49:58;5.00;99.90
11540;DHT22;5826;54.756;9.192;2023-01-29T04:55:03;5.00;99.90
11540;DHT22;5826;54.756;9.192;2023-01-29T04:57:35;5.00;99.90
11540;DHT22;5826;54.756;9.192;2023-01-29T05:00:21;5.10;99.90
11540;DHT22;5826;54.756;9.192;2023-01-29T05:02:50;5.10;99.90
11540;DHT22;5826;54.756;9.192;2023-01-29T05:05:18;5.10;99.90
11540;DHT22;5826;54.756;9.192;2023-01-29T05:07:45;5.10;99.90
11540;DHT22;5826;54.756;9.192;2023-01-29T05:10:12;5.10;99.90
11540;DHT22;5826;54.756;9.192;2023-01-29T05:12:39;5.10;99.90
11540;DHT22;5826;54.756;9.192;2023-01-29T05:15:11;5.10;99.90
11540;DHT22;5826;54.756;9.192;2023-01-29T05:17:38;5.10;99.90
11540;DHT22;5826;54.756;9.192;2023-01-29T05:20:05;5.10;99.90
11540;DHT22;5826;54.756;9.192;2023-01-29T05:22:30;5.10;99.90
11540;DHT22;5826;54.756;9.192;2023-01-29T05:24:56;5.10;99.90
11540;DHT22;5826;54.756;9.192;2023-01-29T05:27:28;5.20;99.90
11540;DHT22;5826;54.756;9.192;2023-01-29T05:30:14;5.20;99.90
11540;DHT22;5826;54.756;9.192;2023-01-29T05:32:40;5.20;99.90
11540;DHT22;5826;54.756;9.192;2023-01-29T05:35:06;5.20;99.90
11540;DHT22;5826;54.756;9.192;2023-01-29T05:37:31;5.20;99.90
11540;DHT22;5826;54.756;9.192;2023-01-29T05:39:57;5.20;99.90
11540;DHT22;5826;54.756;9.192;2023-01-29T05:42:22;5.30;99.90
11540;DHT22;5826;54.756;9.192;2023-01-29T05:44:48;5.30;99.90
11540;DHT22;5826;54.756;9.192;2023-01-29T05:47:18;5.30;99.90
11540;DHT22;5826;54.756;9.192;2023-01-29T05:49:43;5.30;99.90
11540;DHT22;5826;54.756;9.192;2023-01-29T05:52:09;5.30;99.90
11540;DHT22;5826;54.756;9.192;2023-01-29T05:54:34;5.30;99.90
11540;DHT22;5826;54.756;9.192;2023-01-29T05:56:59;5.30;99.90
11540;DHT22;5826;54.756;9.192;2023-01-29T05:59:25;5.40;99.90
11540;DHT22;5826;54.756;9.192;2023-01-29T06:01:50;5.40;99.90
11540;DHT22;5826;54.756;9.192;2023-01-29T06:04:16;5.40;99.90
11540;DHT22;5826;54.756;9.192;2023-01-29T06:06:41;5.40;99.90
11540;DHT22;5826;54.756;9.192;2023-01-29T06:09:09;5.40;99.90
11540;DHT22;5826;54.756;9.192;2023-01-29T06:11:35;5.40;99.90
11540;DHT22;5826;54.756;9.192;2023-01-29T06:14:00;5.40;99.90
11540;DHT22;5826;54.756;9.192;2023-01-29T06:16:26;5.40;99.90
11540;DHT22;5826;54.756;9.192;2023-01-29T06:18:51;5.40;99.90
11540;DHT22;5826;54.756;9.192;2023-01-29T06:21:17;5.40;99.90
11540;DHT22;5826;54.756;9.192;2023-01-29T06:23:42;5.40;99.90
11540;DHT22;5826;54.756;9.192;2023-01-29T06:26:11;5.40;99.90
11540;DHT22;5826;54.756;9.192;2023-01-29T06:28:37;5.50;99.90
11540;DHT22;5826;54.756;9.192;2023-01-29T06:31:04;5.50;99.90
11540;DHT22;5826;54.756;9.192;2023-01-29T06:33:30;5.50;99.90
11540;DHT22;5826;54.756;9.192;2023-01-29T06:36:00;5.50;99.90
11540;DHT22;5826;54.756;9.192;2023-01-29T06:38:27;5.50;99.90
11540;DHT22;5826;54.756;9.192;2023-01-29T06:40:53;5.50;99.90
11540;DHT22;5826;54.756;9.192;2023-01-29T06:43:20;5.50;99.90
11540;DHT22;5826;54.756;9.192;2023-01-29T06:45:50;5.50;99.90
11540;DHT22;5826;54.756;9.192;2023-01-29T06:48:16;5.50;99.90
11540;DHT22;5826;54.756;9.192;2023-01-29T06:50:42;5.50;99.90
11540;DHT22;5826;54.756;9.192;2023-01-29T06:53:08;5.50;99.90
11540;DHT22;5826;54.756;9.192;2023-01-29T06:55:33;5.50;99.90
11540;DHT22;5826;54.756;9.192;2023-01-29T06:57:59;5.50;99.90
11540;DHT22;5826;54.756;9.192;2023-01-29T07:00:28;5.50;99.90
11540;DHT22;5826;54.756;9.192;2023-01-29T07:02:54;5.50;99.90
11540;DHT22;5826;54.756;9.192;2023-01-29T07:05:19;5.50;99.90
11540;DHT22;5826;54.756;9.192;2023-01-29T07:07:44;5.50;99.90
11540;DHT22;5826;54.756;9.192;2023-01-29T07:10:10;5.50;99.90
11540;DHT22;5826;54.756;9.192;2023-01-29T07:12:35;5.50;99.90
11540;DHT22;5826;54.756;9.192;2023-01-29T07:15:01;5.50;99.90
11540;DHT22;5826;54.756;9.192;2023-01-29T07:17:26;5.50;99.90
11540;DHT22;5826;54.756;9.192;2023-01-29T07:19:52;5.50;99.90
11540;DHT22;5826;54.756;9.192;2023-01-29T07:22:17;5.50;99.90
11540;DHT22;5826;54.756;9.192;2023-01-29T07:24:43;5.40;99.90
11540;DHT22;5826;54.756;9.192;2023-01-29T07:27:08;5.40;99.90
11540;DHT22;5826;54.756;9.192;2023-01-29T07:29:34;5.40;99.90
11540;DHT22;5826;54.756;9.192;2023-01-29T07:31:59;5.40;99.90
11540;DHT22;5826;54.756;9.192;2023-01-29T07:34:25;5.40;99.90
11540;DHT22;5826;54.756;9.192;2023-01-29T07:36:53;5.40;99.90
11540;DHT22;5826;54.756;9.192;2023-01-29T07:39:19;5.40;99.90
11540;DHT22;5826;54.756;9.192;2023-01-29T07:41:44;5.40;99.90
11540;DHT22;5826;54.756;9.192;2023-01-29T07:44:10;5.40;99.90
11540;DHT22;5826;54.756;9.192;2023-01-29T07:46:35;5.40;99.90
11540;DHT22;5826;54.756;9.192;2023-01-29T07:49:01;5.40;99.90
11540;DHT22;5826;54.756;9.192;2023-01-29T07:51:26;5.40;99.90
11540;DHT22;5826;54.756;9.192;2023-01-29T07:53:52;5.40;99.90
11540;DHT22;5826;54.756;9.192;2023-01-29T07:56:18;5.40;99.90
11540;DHT22;5826;54.756;9.192;2023-01-29T07:58:43;5.40;99.90
11540;DHT22;5826;54.756;9.192;2023-01-29T08:01:09;5.40;99.90
11540;DHT22;5826;54.756;9.192;2023-01-29T08:03:34;5.50;99.90
11540;DHT22;5826;54.756;9.192;2023-01-29T08:06:02;5.40;99.90
11540;DHT22;5826;54.756;9.192;2023-01-29T08:08:28;5.40;99.90
11540;DHT22;5826;54.756;9.192;2023-01-29T08:10:53;5.50;99.90
11540;DHT22;5826;54.756;9.192;2023-01-29T08:13:18;5.50;99.90
11540;DHT22;5826;54.756;9.192;2023-01-29T08:15:44;5.50;99.90
11540;DHT22;5826;54.756;9.192;2023-01-29T08:18:10;5.60;99.90
11540;DHT22;5826;54.756;9.192;2023-01-29T08:20:36;5.60;99.90
11540;DHT22;5826;54.756;9.192;2023-01-29T08:23:05;5.70;99.90
11540;DHT22;5826;54.756;9.192;2023-01-29T08:25:31;5.70;99.90
11540;DHT22;5826;54.756;9.192;2023-01-29T08:27:58;5.70;99.90
11540;DHT22;5826;54.756;9.192;2023-01-29T08:30:25;5.70;99.90
11540;DHT22;5826;54.756;9.192;2023-01-29T08:32:51;5.80;99.90
11540;DHT22;5826;54.756;9.192;2023-01-29T08:35:16;5.80;99.90
11540;DHT22;5826;54.756;9.192;2023-01-29T08:37:42;5.90;99.90
11540;DHT22;5826;54.756;9.192;2023-01-29T08:40:08;5.90;99.90
11540;DHT22;5826;54.756;9.192;2023-01-29T08:42:35;5.90;99.90
11540;DHT22;5826;54.756;9.192;2023-01-29T08:45:00;5.90;99.90
11540;DHT22;5826;54.756;9.192;2023-01-29T08:47:26;5.90;99.90
11540;DHT22;5826;54.756;9.192;2023-01-29T08:49:51;6.00;99.90
11540;DHT22;5826;54.756;9.192;2023-01-29T08:52:17;6.00;99.90
11540;DHT22;5826;54.756;9.192;2023-01-29T08:54:43;6.00;99.90
11540;DHT22;5826;54.756;9.192;2023-01-29T08:57:09;6.00;99.90
11540;DHT22;5826;54.756;9.192;2023-01-29T08:59:34;6.10;99.90
11540;DHT22;5826;54.756;9.192;2023-01-29T09:02:00;6.10;99.90
11540;DHT22;5826;54.756;9.192;2023-01-29T09:04:25;6.10;99.90
11540;DHT22;5826;54.756;9.192;2023-01-29T09:06:51;6.20;99.90
11540;DHT22;5826;54.756;9.192;2023-01-29T09:09:16;6.20;99.90
11540;DHT22;5826;54.756;9.192;2023-01-29T09:11:42;6.20;99.90
11540;DHT22;5826;54.756;9.192;2023-01-29T09:14:08;6.20;99.90
11540;DHT22;5826;54.756;9.192;2023-01-29T09:16:36;6.20;99.90
11540;DHT22;5826;54.756;9.192;2023-01-29T09:19:02;6.20;99.90
11540;DHT22;5826;54.756;9.192;2023-01-29T09:21:27;6.10;99.90
11540;DHT22;5826;54.756;9.192;2023-01-29T09:23:53;6.10;99.90
11540;DHT22;5826;54.756;9.192;2023-01-29T09:26:18;6.00;99.90
11540;DHT22;5826;54.756;9.192;2023-01-29T09:28:44;6.10;99.90
11540;DHT22;5826;54.756;9.192;2023-01-29T09:31:09;6.00;99.90
11540;DHT22;5826;54.756;9.192;2023-01-29T09:33:35;6.00;99.90
11540;DHT22;5826;54.756;9.192;2023-01-29T09:36:02;6.00;99.90
11540;DHT22;5826;54.756;9.192;2023-01-29T09:38:27;6.00;99.90
11540;DHT22;5826;54.756;9.192;2023-01-29T09:43:47;6.00;99.90
11540;DHT22;5826;54.756;9.192;2023-01-29T09:46:22;6.00;99.90
11540;DHT22;5826;54.756;9.192;2023-01-29T09:49:40;6.00;99.90
11540;DHT22;5826;54.756;9.192;2023-01-29T09:51:43;6.00;99.90
11540;DHT22;5826;54.756;9.192;2023-01-29T09:54:28;6.00;99.90
11540;DHT22;5826;54.756;9.192;2023-01-29T09:56:56;6.00;99.90
11540;DHT22;5826;54.756;9.192;2023-01-29T09:59:26;6.10;99.90
11540;DHT22;5826;54.756;9.192;2023-01-29T10:07:36;6.00;99.90
11540;DHT22;5826;54.756;9.192;2023-01-29T10:12:56;6.10;99.90
11540;DHT22;5826;54.756;9.192;2023-01-29T10:15:33;6.10;99.90
11540;DHT22;5826;54.756;9.192;2023-01-29T10:21:18;6.10;99.90
11540;DHT22;5826;54.756;9.192;2023-01-29T10:23:57;6.10;99.90
11540;DHT22;5826;54.756;9.192;2023-01-29T10:26:28;6.20;99.90
11540;DHT22;5826;54.756;9.192;2023-01-29T10:28:56;6.20;99.90
11540;DHT22;5826;54.756;9.192;2023-01-29T10:31:35;6.20;99.90
11540;DHT22;5826;54.756;9.192;2023-01-29T10:34:11;6.30;99.90
11540;DHT22;5826;54.756;9.192;2023-01-29T10:36:44;6.40;99.90
11540;DHT22;5826;54.756;9.192;2023-01-29T10:39:15;6.40;99.90
11540;DHT22;5826;54.756;9.192;2023-01-29T10:42:03;6.50;99.90
11540;DHT22;5826;54.756;9.192;2023-01-29T10:47:39;6.40;99.90
11540;DHT22;5826;54.756;9.192;2023-01-29T10:50:15;6.40;99.90
11540;DHT22;5826;54.756;9.192;2023-01-29T10:55:42;6.50;99.90
11540;DHT22;5826;54.756;9.192;2023-01-29T10:58:49;6.40;99.90
11540;DHT22;5826;54.756;9.192;2023-01-29T11:01:15;6.50;99.90
11540;DHT22;5826;54.756;9.192;2023-01-29T11:03:41;6.50;99.90
11540;DHT22;5826;54.756;9.192;2023-01-29T11:06:22;6.40;99.90
11540;DHT22;5826;54.756;9.192;2023-01-29T11:08:53;6.40;99.90
11540;DHT22;5826;54.756;9.192;2023-01-29T11:11:23;6.40;99.90
11540;DHT22;5826;54.756;9.192;2023-01-29T11:13:57;6.40;99.90
11540;DHT22;5826;54.756;9.192;2023-01-29T11:16:26;6.40;99.90
11540;DHT22;5826;54.756;9.192;2023-01-29T11:18:58;6.40;99.90
11540;DHT22;5826;54.756;9.192;2023-01-29T11:21:25;6.40;99.90
11540;DHT22;5826;54.756;9.192;2023-01-29T11:24:05;6.40;99.90
11540;DHT22;5826;54.756;9.192;2023-01-29T11:26:34;6.40;99.90
11540;DHT22;5826;54.756;9.192;2023-01-29T11:29:01;6.40;99.90
11540;DHT22;5826;54.756;9.192;2023-01-29T11:31:35;6.40;99.90
11540;DHT22;5826;54.756;9.192;2023-01-29T11:34:20;6.40;99.90
11540;DHT22;5826;54.756;9.192;2023-01-29T11:37:14;6.40;99.90
11540;DHT22;5826;54.756;9.192;2023-01-29T11:39:44;6.40;99.90
11540;DHT22;5826;54.756;9.192;2023-01-29T11:42:20;6.30;99.90
11540;DHT22;5826;54.756;9.192;2023-01-29T11:44:46;6.30;99.90
11540;DHT22;5826;54.756;9.192;2023-01-29T11:47:26;6.30;99.90
11540;DHT22;5826;54.756;9.192;2023-01-29T11:49:54;6.30;99.90
11540;DHT22;5826;54.756;9.192;2023-01-29T11:52:26;6.30;99.90
11540;DHT22;5826;54.756;9.192;2023-01-29T11:55:01;6.30;99.90
11540;DHT22;5826;54.756;9.192;2023-01-29T11:57:32;6.30;99.90
11540;DHT22;5826;54.756;9.192;2023-01-29T12:00:03;6.30;99.90
11540;DHT22;5826;54.756;9.192;2023-01-29T12:05:21;6.30;99.90
11540;DHT22;5826;54.756;9.192;2023-01-29T12:07:55;6.30;99.90
11540;DHT22;5826;54.756;9.192;2023-01-29T12:15:37;6.40;99.90
11540;DHT22;5826;54.756;9.192;2023-01-29T12:20:58;6.50;99.90
11540;DHT22;5826;54.756;9.192;2023-01-29T12:23:43;6.40;99.90
11540;DHT22;5826;54.756;9.192;2023-01-29T12:26:15;6.40;99.90
11540;DHT22;5826;54.756;9.192;2023-01-29T12:29:20;6.40;99.90
11540;DHT22;5826;54.756;9.192;2023-01-29T12:32:42;6.40;99.90
11540;DHT22;5826;54.756;9.192;2023-01-29T12:34:51;6.50;99.90
11540;DHT22;5826;54.756;9.192;2023-01-29T12:37:37;6.40;99.90
11540;DHT22;5826;54.756;9.192;2023-01-29T12:40:11;6.40;99.90
11540;DHT22;5826;54.756;9.192;2023-01-29T12:42:40;6.40;99.90
11540;DHT22;5826;54.756;9.192;2023-01-29T12:45:08;6.40;99.90
11540;DHT22;5826;54.756;9.192;2023-01-29T12:47:44;6.40;99.90
11540;DHT22;5826;54.756;9.192;2023-01-29T12:50:21;6.40;99.90
11540;DHT22;5826;54.756;9.192;2023-01-29T12:52:55;6.50;99.90
11540;DHT22;5826;54.756;9.192;2023-01-29T12:55:27;6.50;99.90
11540;DHT22;5826;54.756;9.192;2023-01-29T12:58:01;6.60;99.90
11540;DHT22;5826;54.756;9.192;2023-01-29T13:00:32;6.60;99.90
11540;DHT22;5826;54.756;9.192;2023-01-29T13:03:21;6.70;99.90
11540;DHT22;5826;54.756;9.192;2023-01-29T13:05:55;6.70;99.90
11540;DHT22;5826;54.756;9.192;2023-01-29T13:08:37;6.70;99.90
11540;DHT22;5826;54.756;9.192;2023-01-29T13:11:09;6.70;99.90
11540;DHT22;5826;54.756;9.192;2023-01-29T13:13:50;6.70;99.90
11540;DHT22;5826;54.756;9.192;2023-01-29T13:16:26;6.70;99.90
11540;DHT22;5826;54.756;9.192;2023-01-29T13:19:05;6.70;99.90
11540;DHT22;5826;54.756;9.192;2023-01-29T13:21:36;6.70;99.90
11540;DHT22;5826;54.756;9.192;2023-01-29T13:24:10;6.70;99.90
11540;DHT22;5826;54.756;9.192;2023-01-29T13:26:37;6.70;99.90
11540;DHT22;5826;54.756;9.192;2023-01-29T13:29:04;6.70;99.90
11540;DHT22;5826;54.756;9.192;2023-01-29T13:31:34;6.60;99.90
11540;DHT22;5826;54.756;9.192;2023-01-29T13:34:10;6.70;99.90
11540;DHT22;5826;54.756;9.192;2023-01-29T13:36:44;6.60;99.90
11540;DHT22;5826;54.756;9.192;2023-01-29T13:39:47;6.60;99.90
11540;DHT22;5826;54.756;9.192;2023-01-29T13:42:25;6.60;99.90
11540;DHT22;5826;54.756;9.192;2023-01-29T13:45:00;6.60;99.90
11540;DHT22;5826;54.756;9.192;2023-01-29T13:47:32;6.60;99.90
11540;DHT22;5826;54.756;9.192;2023-01-29T13:50:08;6.60;99.90
11540;DHT22;5826;54.756;9.192;2023-01-29T13:52:52;6.70;99.90
11540;DHT22;5826;54.756;9.192;2023-01-29T13:55:20;6.70;99.90
11540;DHT22;5826;54.756;9.192;2023-01-29T13:57:50;6.70;99.90
11540;DHT22;5826;54.756;9.192;2023-01-29T14:02:44;6.70;99.90
11540;DHT22;5826;54.756;9.192;2023-01-29T14:07:56;6.70;99.90
11540;DHT22;5826;54.756;9.192;2023-01-29T14:10:24;6.70;99.90
11540;DHT22;5826;54.756;9.192;2023-01-29T14:15:33;6.60;99.90
11540;DHT22;5826;54.756;9.192;2023-01-29T14:18:02;6.70;99.90
11540;DHT22;5826;54.756;9.192;2023-01-29T14:23:38;6.60;99.90
11540;DHT22;5826;54.756;9.192;2023-01-29T14:31:29;6.60;99.90
11540;DHT22;5826;54.756;9.192;2023-01-29T14:34:00;6.60;99.90
11540;DHT22;5826;54.756;9.192;2023-01-29T14:36:27;6.60;99.90
11540;DHT22;5826;54.756;9.192;2023-01-29T14:38:53;6.60;99.90
11540;DHT22;5826;54.756;9.192;2023-01-29T14:41:28;6.70;99.90
11540;DHT22;5826;54.756;9.192;2023-01-29T14:46:57;6.70;99.90
11540;DHT22;5826;54.756;9.192;2023-01-29T14:49:48;6.70;99.90
11540;DHT22;5826;54.756;9.192;2023-01-29T14:52:15;6.70;99.90
11540;DHT22;5826;54.756;9.192;2023-01-29T14:54:42;6.60;99.90
11540;DHT22;5826;54.756;9.192;2023-01-29T14:57:12;6.60;99.90
11540;DHT22;5826;54.756;9.192;2023-01-29T14:59:58;6.60;99.90
11540;DHT22;5826;54.756;9.192;2023-01-29T15:02:27;6.60;99.90
11540;DHT22;5826;54.756;9.192;2023-01-29T15:05:02;6.60;99.90
11540;DHT22;5826;54.756;9.192;2023-01-29T15:07:40;6.60;99.90
11540;DHT22;5826;54.756;9.192;2023-01-29T15:10:16;6.70;99.90
11540;DHT22;5826;54.756;9.192;2023-01-29T15:12:50;6.60;99.90
11540;DHT22;5826;54.756;9.192;2023-01-29T15:15:32;6.60;99.90
11540;DHT22;5826;54.756;9.192;2023-01-29T15:18:12;6.60;99.90
11540;DHT22;5826;54.756;9.192;2023-01-29T15:20:41;6.60;99.90
11540;DHT22;5826;54.756;9.192;2023-01-29T15:23:26;6.50;99.90
11540;DHT22;5826;54.756;9.192;2023-01-29T15:25:58;6.60;99.90
11540;DHT22;5826;54.756;9.192;2023-01-29T15:28:31;6.60;99.90
11540;DHT22;5826;54.756;9.192;2023-01-29T15:30:59;6.50;99.90
11540;DHT22;5826;54.756;9.192;2023-01-29T15:33:26;6.50;99.90
11540;DHT22;5826;54.756;9.192;2023-01-29T15:36:00;6.50;99.90
11540;DHT22;5826;54.756;9.192;2023-01-29T15:38:26;6.50;99.90
11540;DHT22;5826;54.756;9.192;2023-01-29T15:40:58;6.50;99.90
11540;DHT22;5826;54.756;9.192;2023-01-29T15:43:29;6.50;99.90
11540;DHT22;5826;54.756;9.192;2023-01-29T15:45:58;6.50;99.90
11540;DHT22;5826;54.756;9.192;2023-01-29T15:48:30;6.50;99.90
11540;DHT22;5826;54.756;9.192;2023-01-29T15:50:56;6.50;99.90
11540;DHT22;5826;54.756;9.192;2023-01-29T15:53:32;6.40;99.90
11540;DHT22;5826;54.756;9.192;2023-01-29T15:55:59;6.40;99.90
11540;DHT22;5826;54.756;9.192;2023-01-29T15:58:30;6.40;99.90
11540;DHT22;5826;54.756;9.192;2023-01-29T16:00:57;6.40;99.90
11540;DHT22;5826;54.756;9.192;2023-01-29T16:03:26;6.40;99.90
11540;DHT22;5826;54.756;9.192;2023-01-29T16:05:53;6.40;99.90
11540;DHT22;5826;54.756;9.192;2023-01-29T16:08:21;6.40;99.90
11540;DHT22;5826;54.756;9.192;2023-01-29T16:10:52;6.50;99.90
11540;DHT22;5826;54.756;9.192;2023-01-29T16:13:24;6.40;99.90
11540;DHT22;5826;54.756;9.192;2023-01-29T16:20:58;6.50;99.90
11540;DHT22;5826;54.756;9.192;2023-01-29T16:23:29;6.50;99.90
11540;DHT22;5826;54.756;9.192;2023-01-29T16:26:01;6.50;99.90
11540;DHT22;5826;54.756;9.192;2023-01-29T16:28:29;6.50;99.90
11540;DHT22;5826;54.756;9.192;2023-01-29T16:30:58;6.50;99.90
11540;DHT22;5826;54.756;9.192;2023-01-29T16:33:43;6.50;99.90
11540;DHT22;5826;54.756;9.192;2023-01-29T16:36:17;6.50;99.90
11540;DHT22;5826;54.756;9.192;2023-01-29T16:38:46;6.50;99.90
11540;DHT22;5826;54.756;9.192;2023-01-29T16:43:56;6.50;99.90
11540;DHT22;5826;54.756;9.192;2023-01-29T16:46:23;6.50;99.90
11540;DHT22;5826;54.756;9.192;2023-01-29T16:48:51;6.50;99.90
11540;DHT22;5826;54.756;9.192;2023-01-29T16:51:35;6.40;99.90
11540;DHT22;5826;54.756;9.192;2023-01-29T16:54:11;6.50;99.90
11540;DHT22;5826;54.756;9.192;2023-01-29T16:56:47;6.50;99.90
11540;DHT22;5826;54.756;9.192;2023-01-29T16:59:22;6.50;99.90
11540;DHT22;5826;54.756;9.192;2023-01-29T17:01:52;6.50;99.90
11540;DHT22;5826;54.756;9.192;2023-01-29T17:04:18;6.50;99.90
11540;DHT22;5826;54.756;9.192;2023-01-29T17:06:47;6.50;99.90
11540;DHT22;5826;54.756;9.192;2023-01-29T17:09:20;6.50;99.90
11540;DHT22;5826;54.756;9.192;2023-01-29T17:11:47;6.50;99.90
11540;DHT22;5826;54.756;9.192;2023-01-29T17:14:18;6.50;99.90
11540;DHT22;5826;54.756;9.192;2023-01-29T17:17:14;6.50;99.90
11540;DHT22;5826;54.756;9.192;2023-01-29T17:19:40;6.50;99.90
11540;DHT22;5826;54.756;9.192;2023-01-29T17:22:06;6.50;99.90
11540;DHT22;5826;54.756;9.192;2023-01-29T17:24:40;6.50;99.90
11540;DHT22;5826;54.756;9.192;2023-01-29T17:27:05;6.50;99.90
11540;DHT22;5826;54.756;9.192;2023-01-29T17:29:31;6.50;99.90
11540;DHT22;5826;54.756;9.192;2023-01-29T17:31:56;6.50;99.90
11540;DHT22;5826;54.756;9.192;2023-01-29T17:34:24;6.50;99.90
11540;DHT22;5826;54.756;9.192;2023-01-29T17:36:50;6.50;99.90
11540;DHT22;5826;54.756;9.192;2023-01-29T17:39:21;6.50;99.90
11540;DHT22;5826;54.756;9.192;2023-01-29T17:41:52;6.50;99.90
11540;DHT22;5826;54.756;9.192;2023-01-29T17:44:18;6.50;99.90
11540;DHT22;5826;54.756;9.192;2023-01-29T17:46:44;6.50;99.90
11540;DHT22;5826;54.756;9.192;2023-01-29T17:49:27;6.50;99.90
11540;DHT22;5826;54.756;9.192;2023-01-29T17:51:55;6.50;99.90
11540;DHT22;5826;54.756;9.192;2023-01-29T17:54:21;6.50;99.90
11540;DHT22;5826;54.756;9.192;2023-01-29T17:56:47;6.50;99.90
11540;DHT22;5826;54.756;9.192;2023-01-29T17:59:15;6.50;99.90
11540;DHT22;5826;54.756;9.192;2023-01-29T18:01:42;6.50;99.90
11540;DHT22;5826;54.756;9.192;2023-01-29T18:04:08;6.50;99.90